Time;durP1;ratioP1;P1;durP2;ratioP2;P2;SDS_P1;SDS_P2;PMS_P1;PMS_P2;Temp;Humidity;BMP_temperature;BMP_pressure;BME280_temperature;BME280_humidity;BME280_pressure;Samples;Min_cycle;Max_cycle;Signal;HPM_P1;HPM_P2
2022/10/14 00:00:40;;;;;;;1.58;1.48;;;;;;;15.40;100.00;99478.34;7389331;19;20015;-61
2022/10/14 00:03:06;;;;;;;4.03;1.70;;;;;;;15.18;100.00;99468.75;7389934;19;20011;-62
2022/10/14 00:05:32;;;;;;;3.03;1.35;;;;;;;15.16;100.00;99468.50;7389018;19;20573;-62
2022/10/14 00:07:58;;;;;;;15.10;1.90;;;;;;;15.06;100.00;99461.66;7390124;19;20014;-62
2022/10/14 00:10:24;;;;;;;10.80;1.65;;;;;;;15.00;100.00;99460.16;7388610;19;20077;-62
2022/10/14 00:12:50;;;;;;;1.48;1.38;;;;;;;15.05;100.00;99457.31;7388157;19;20011;-62
2022/10/14 00:15:17;;;;;;;1.42;1.35;;;;;;;15.27;100.00;99459.25;7389997;19;20018;-62
2022/10/14 00:17:43;;;;;;;2.28;1.85;;;;;;;15.44;100.00;99453.63;7389856;19;20025;-63
2022/10/14 00:20:09;;;;;;;5.97;1.33;;;;;;;15.37;100.00;99443.66;7390433;19;20010;-62
2022/10/14 00:22:36;;;;;;;1.27;0.80;;;;;;;15.54;100.00;99440.78;7393650;19;20010;-63
2022/10/14 00:25:02;;;;;;;5.15;2.22;;;;;;;15.41;100.00;99434.97;7388379;19;20080;-63
2022/10/14 00:27:29;;;;;;;2.80;2.05;;;;;;;15.10;100.00;99434.09;7389644;19;20017;-62
2022/10/14 00:29:55;;;;;;;2.47;1.75;;;;;;;15.06;100.00;99433.63;7389813;19;20018;-61
2022/10/14 00:32:21;;;;;;;2.92;1.05;;;;;;;15.10;100.00;99431.31;7388578;19;20011;-61
2022/10/14 00:34:51;;;;;;;0.32;0.32;;;;;;;15.22;100.00;99422.84;7389718;19;20025;-61
2022/10/14 00:37:17;;;;;;;3.63;0.77;;;;;;;15.09;100.00;99423.41;7393034;19;20094;-61
2022/10/14 00:39:43;;;;;;;1.60;1.00;;;;;;;15.15;100.00;99427.72;7393415;19;20014;-61
2022/10/14 00:42:14;;;;;;;0.98;0.98;;;;;;;15.25;100.00;99424.59;7388465;19;20034;-62
2022/10/14 00:44:43;;;;;;;1.85;1.25;;;;;;;15.29;100.00;99425.09;7388533;19;20099;-62
2022/10/14 00:47:09;;;;;;;3.28;0.70;;;;;;;15.53;100.00;99416.78;7386803;19;20010;-62
2022/10/14 00:49:41;;;;;;;4.07;1.17;;;;;;;15.48;100.00;99420.41;7391821;19;20484;-63
2022/10/14 00:52:13;;;;;;;1.85;1.33;;;;;;;15.78;100.00;99419.19;7389976;19;20360;-62
2022/10/14 00:55:09;;;;;;;0.85;0.85;;;;;;;15.93;100.00;99422.41;7392387;19;20038;-62
2022/10/14 00:57:37;;;;;;;1.33;0.82;;;;;;;15.97;100.00;99422.09;7395001;19;20007;-62
2022/10/14 01:00:09;;;;;;;1.58;0.90;;;;;;;15.93;100.00;99418.81;7395247;19;20006;-62
2022/10/14 01:02:36;;;;;;;1.30;1.13;;;;;;;15.82;100.00;99414.06;7394500;19;20022;-62
2022/10/14 01:05:05;;;;;;;2.05;1.05;;;;;;;15.95;100.00;99419.06;7395630;19;20373;-62
2022/10/14 01:07:58;;;;;;;1.00;0.85;;;;;;;15.96;100.00;99420.56;7393912;19;20078;-62
2022/10/14 01:10:59;;;;;;;0.93;0.88;;;;;;;16.00;100.00;99415.44;7395131;19;20015;-62
2022/10/14 01:13:31;;;;;;;1.77;0.98;;;;;;;16.22;100.00;99398.38;7394690;19;20015;-62
2022/10/14 01:16:23;;;;;;;1.08;1.08;;;;;;;16.48;100.00;99387.38;7394603;19;20017;-62
2022/10/14 01:19:20;;;;;;;0.82;0.80;;;;;;;16.66;100.00;99386.69;7398815;19;20034;-62
2022/10/14 01:22:13;;;;;;;1.45;1.25;;;;;;;16.77;100.00;99385.03;7395161;19;20459;-62
2022/10/14 01:24:43;;;;;;;3.17;1.83;;;;;;;16.57;100.00;99381.44;7393505;19;20015;-67
2022/10/14 01:27:14;;;;;;;6.32;1.65;;;;;;;16.42;100.00;99380.28;7393521;19;20015;-67
2022/10/14 01:30:09;;;;;;;0.77;0.77;;;;;;;16.38;100.00;99371.41;7400010;19;20347;-67
2022/10/14 01:32:51;;;;;;;0.73;0.73;;;;;;;16.00;100.00;99380.97;7394588;19;20006;-67
2022/10/14 01:35:18;;;;;;;0.75;0.75;;;;;;;15.91;100.00;99376.47;7397249;19;20010;-67
2022/10/14 01:38:01;;;;;;;2.40;1.27;;;;;;;15.88;100.00;99369.84;7395072;19;20088;-66
2022/10/14 01:40:32;;;;;;;1.17;1.02;;;;;;;15.94;100.00;99370.53;7394160;19;20358;-67
2022/10/14 01:43:01;;;;;;;1.23;1.05;;;;;;;15.76;100.00;99356.41;7396748;19;20467;-67
2022/10/14 01:45:31;;;;;;;0.60;0.60;;;;;;;15.60;100.00;99362.91;7395368;19;20010;-66
2022/10/14 01:47:59;;;;;;;0.60;0.60;;;;;;;15.63;100.00;99354.22;7395632;19;20026;-67
2022/10/14 01:50:30;;;;;;;0.47;0.47;;;;;;;15.55;100.00;99363.75;7396410;19;20010;-67
2022/10/14 01:53:10;;;;;;;1.73;0.60;;;;;;;15.44;100.00;99361.75;7396023;19;20039;-67
2022/10/14 01:55:41;;;;;;;1.60;1.50;;;;;;;15.45;100.00;99356.91;7394208;19;20018;-66
2022/10/14 01:58:10;;;;;;;5.97;1.25;;;;;;;15.65;100.00;99350.91;7391188;19;20018;-66
2022/10/14 02:00:37;;;;;;;0.75;0.70;;;;;;;15.75;100.00;99338.03;7399501;19;20443;-68
2022/10/14 02:03:03;;;;;;;1.05;1.05;;;;;;;15.58;100.00;99337.41;7392122;19;20023;-68
2022/10/14 02:05:50;;;;;;;4.78;1.08;;;;;;;15.45;100.00;99335.22;7391227;19;20074;-67
2022/10/14 02:08:22;;;;;;;0.68;0.68;;;;;;;15.25;100.00;99341.19;7394285;19;20018;-68
2022/10/14 02:11:07;;;;;;;2.20;1.30;;;;;;;15.31;100.00;99343.97;7392031;19;20021;-68
2022/10/14 02:14:00;;;;;;;2.60;1.83;;;;;;;15.24;100.00;99339.69;7395244;19;20024;-67
2022/10/14 02:16:37;;;;;;;5.80;2.70;;;;;;;15.47;100.00;99334.69;7392422;19;20044;-68
2022/10/14 02:19:13;;;;;;;1.95;1.50;;;;;;;15.66;100.00;99327.13;7394708;19;20153;-67
2022/10/14 02:21:50;;;;;;;5.45;1.30;;;;;;;15.76;100.00;99322.72;7393249;19;20379;-67
2022/10/14 02:24:34;;;;;;;1.40;0.63;;;;;;;15.62;100.00;99309.81;7391624;19;20100;-68
2022/10/14 02:27:12;;;;;;;1.00;0.82;;;;;;;10.77;100.00;99314.94;7390976;19;20038;-68
2022/10/14 02:29:41;;;;;;;0.95;0.85;;;;;;;9.54;100.00;99308.97;7395236;19;20025;-68
2022/10/14 02:32:13;;;;;;;0.30;0.30;;;;;;;8.80;100.00;99316.56;7389741;19;20422;-68
2022/10/14 02:34:42;;;;;;;1.88;0.90;;;;;;;8.65;100.00;99321.31;7392276;19;20007;-68
2022/10/14 02:37:10;;;;;;;1.25;1.08;;;;;;;8.69;100.00;99310.78;7395487;19;20010;-67
2022/10/14 02:39:42;;;;;;;0.60;0.60;;;;;;;8.50;100.00;99320.50;7397338;19;20011;-67
2022/10/14 02:42:09;;;;;;;0.45;0.45;;;;;;;8.38;100.00;99307.66;7391539;19;20034;-67
2022/10/14 02:44:35;;;;;;;1.05;0.73;;;;;;;8.65;100.00;99314.97;7390773;19;20082;-67
2022/10/14 02:47:01;;;;;;;1.23;0.57;;;;;;;8.70;100.00;99300.44;7392359;19;20015;-67
2022/10/14 02:49:29;;;;;;;0.70;0.65;;;;;;;8.86;100.00;99300.75;7393925;19;20484;-67
2022/10/14 02:51:55;;;;;;;1.48;1.38;;;;;;;8.98;100.00;99299.72;7393499;19;20021;-67
2022/10/14 02:54:21;;;;;;;0.43;0.43;;;;;;;9.29;100.00;99295.69;7392771;19;20018;-67
2022/10/14 02:56:47;;;;;;;1.23;0.88;;;;;;;9.06;100.00;99300.88;7390293;19;20018;-66
2022/10/14 02:59:13;;;;;;;1.60;0.73;;;;;;;9.18;100.00;99297.03;7394003;19;20018;-67
2022/10/14 03:01:39;;;;;;;3.85;1.85;;;;;;;9.31;100.00;99293.22;7390844;19;20010;-67
2022/10/14 03:04:08;;;;;;;1.58;0.85;;;;;;;10.97;100.00;99289.84;7390355;19;20038;-66
2022/10/14 03:06:35;;;;;;;0.38;0.38;;;;;;;14.79;100.00;99263.47;7391234;19;20040;-67
2022/10/14 03:09:01;;;;;;;2.45;0.90;;;;;;;15.37;100.00;99258.47;7393566;19;20006;-66
2022/10/14 03:11:29;;;;;;;3.03;0.60;;;;;;;15.79;100.00;99246.63;7389822;19;20017;-67
2022/10/14 03:14:01;;;;;;;0.30;0.30;;;;;;;16.08;100.00;99259.09;7389908;19;20015;-67
2022/10/14 03:16:27;;;;;;;0.45;0.45;;;;;;;16.19;100.00;99252.56;7388275;19;20015;-67
2022/10/14 03:18:54;;;;;;;0.40;0.40;;;;;;;16.32;100.00;99235.81;7392762;19;20010;-67
2022/10/14 03:21:33;;;;;;;0.43;0.40;;;;;;;16.29;100.00;99234.81;7391310;19;20077;-67
2022/10/14 03:24:00;;;;;;;3.70;0.63;;;;;;;16.29;100.00;99240.44;7391896;19;20086;-67
2022/10/14 03:26:31;;;;;;;0.50;0.50;;;;;;;16.39;100.00;99235.97;7388704;19;20451;-67
2022/10/14 03:28:57;;;;;;;1.25;0.90;;;;;;;16.42;100.00;99229.28;7392762;19;20066;-67
2022/10/14 03:31:33;;;;;;;2.60;0.65;;;;;;;16.57;100.00;99224.00;7389652;19;20007;-67
2022/10/14 03:34:17;;;;;;;1.75;0.95;;;;;;;16.46;100.00;99226.94;7389154;19;20014;-67
2022/10/14 03:36:44;;;;;;;0.40;0.40;;;;;;;16.49;100.00;99230.72;7392554;19;20649;-67
2022/10/14 03:39:11;;;;;;;1.65;1.20;;;;;;;16.51;100.00;99228.94;7392531;19;20103;-67
2022/10/14 03:41:47;;;;;;;2.30;1.13;;;;;;;16.56;100.00;99225.31;7390010;19;20037;-67
2022/10/14 03:44:17;;;;;;;0.70;0.70;;;;;;;16.64;100.00;99217.78;7388996;19;20023;-66
2022/10/14 03:47:03;;;;;;;1.33;0.75;;;;;;;16.66;100.00;99217.22;7389701;19;20014;-67
2022/10/14 03:49:32;;;;;;;0.73;0.63;;;;;;;16.73;100.00;99210.25;7393624;19;20011;-67
2022/10/14 03:52:03;;;;;;;0.93;0.35;;;;;;;16.71;100.00;99218.44;7389535;19;20495;-67
2022/10/14 03:54:34;;;;;;;4.32;0.50;;;;;;;16.54;100.00;99208.22;7389064;19;20014;-67
2022/10/14 03:57:00;;;;;;;3.13;0.93;;;;;;;16.59;100.00;99206.59;7388635;19;20011;-67
2022/10/14 03:59:32;;;;;;;1.65;0.77;;;;;;;16.58;100.00;99188.22;7393035;19;20015;-67
2022/10/14 04:01:58;;;;;;;1.00;0.75;;;;;;;16.49;100.00;99191.38;7389120;19;20021;-67
2022/10/14 04:04:25;;;;;;;3.58;0.63;;;;;;;16.49;100.00;99192.16;7387486;19;20010;-67
2022/10/14 04:06:51;;;;;;;4.60;1.17;;;;;;;16.45;100.00;99190.94;7389820;19;20006;-67
2022/10/14 04:09:19;;;;;;;1.38;0.63;;;;;;;16.32;100.00;99191.63;7391926;19;20007;-67
2022/10/14 04:11:46;;;;;;;0.65;0.60;;;;;;;16.24;100.00;99187.88;7387985;19;20097;-67
2022/10/14 04:14:41;;;;;;;2.58;0.65;;;;;;;16.13;100.00;99182.41;7388288;19;20394;-67
2022/10/14 04:17:07;;;;;;;1.63;0.45;;;;;;;16.21;100.00;99174.91;7388203;19;20070;-67
2022/10/14 04:19:33;;;;;;;1.65;0.93;;;;;;;16.28;100.00;99171.50;7392967;19;20014;-67
2022/10/14 04:22:01;;;;;;;0.75;0.63;;;;;;;16.29;100.00;99184.25;7391101;19;20014;-67
2022/10/14 04:24:27;;;;;;;0.93;0.68;;;;;;;16.28;100.00;99177.13;7388312;19;20030;-67
2022/10/14 04:26:57;;;;;;;2.08;1.05;;;;;;;16.51;100.00;99183.97;7387783;19;20347;-66
2022/10/14 04:29:37;;;;;;;0.30;0.30;;;;;;;16.67;100.00;99185.03;7399033;19;20074;-67
2022/10/14 04:32:10;;;;;;;1.05;0.75;;;;;;;16.71;100.00;99184.72;7393694;19;20082;-67
2022/10/14 04:34:38;;;;;;;1.33;1.23;;;;;;;16.76;100.00;99181.06;7394915;19;20018;-67
2022/10/14 04:37:05;;;;;;;1.75;0.55;;;;;;;16.88;100.00;99177.53;7399466;19;20014;-67
2022/10/14 04:39:50;;;;;;;4.97;1.35;;;;;;;16.94;100.00;99169.75;7400903;19;20011;-67
2022/10/14 04:42:17;;;;;;;3.85;0.95;;;;;;;17.04;100.00;99173.72;7395536;19;20006;-67
2022/10/14 04:44:47;;;;;;;2.83;1.13;;;;;;;17.03;100.00;99162.97;7396845;19;20039;-68
2022/10/14 04:47:14;;;;;;;1.23;0.85;;;;;;;17.06;100.00;99162.69;7393937;19;20022;-68
2022/10/14 04:49:40;;;;;;;0.60;0.60;;;;;;;17.22;100.00;99152.41;7398181;19;20007;-68
2022/10/14 04:52:13;;;;;;;0.68;0.63;;;;;;;17.12;100.00;99148.50;7395352;19;20014;-67
2022/10/14 04:54:45;;;;;;;1.45;0.77;;;;;;;16.89;100.00;99155.81;7394852;19;20038;-67
2022/10/14 04:57:11;;;;;;;0.88;0.85;;;;;;;17.01;100.00;99157.91;7395127;19;20006;-66
2022/10/14 04:59:38;;;;;;;2.10;0.73;;;;;;;16.97;100.00;99151.06;7398443;19;20015;-67
2022/10/14 05:02:34;;;;;;;4.38;1.42;;;;;;;16.92;100.00;99165.97;7391932;19;20519;-66
2022/10/14 05:05:01;;;;;;;0.47;0.47;;;;;;;16.89;100.00;99161.44;7393618;19;20034;-66
2022/10/14 05:07:32;;;;;;;0.35;0.30;;;;;;;16.82;100.00;99148.75;7395273;19;20098;-67
2022/10/14 05:10:14;;;;;;;1.25;0.90;;;;;;;16.78;100.00;99147.53;7394425;19;20086;-66
2022/10/14 05:12:41;;;;;;;7.70;1.17;;;;;;;16.70;100.00;99143.84;7392688;19;20022;-66
2022/10/14 05:15:08;;;;;;;0.55;0.55;;;;;;;16.79;100.00;99146.22;7394157;19;20010;-66
2022/10/14 05:17:43;;;;;;;1.05;0.90;;;;;;;17.00;100.00;99139.47;7394053;19;20017;-66
2022/10/14 05:20:11;;;;;;;3.83;1.17;;;;;;;16.95;100.00;99133.97;7394640;19;20078;-66
2022/10/14 05:22:39;;;;;;;0.75;0.70;;;;;;;16.90;100.00;99132.00;7398299;19;20014;-66
2022/10/14 05:25:06;;;;;;;12.95;1.00;;;;;;;16.80;100.00;99122.44;7394599;19;20011;-67
2022/10/14 05:27:32;;;;;;;0.65;0.65;;;;;;;16.81;100.00;99116.28;7394277;19;20078;-66
2022/10/14 05:30:01;;;;;;;1.17;0.43;;;;;;;16.70;100.00;99122.09;7394115;19;20014;-66
2022/10/14 05:32:28;;;;;;;0.40;0.40;;;;;;;15.90;100.00;99120.13;7391994;19;20010;-66
2022/10/14 05:35:00;;;;;;;3.25;0.47;;;;;;;16.17;100.00;99114.69;7392967;19;20356;-67
2022/10/14 05:37:32;;;;;;;0.47;0.32;;;;;;;16.54;100.00;99114.69;7393669;19;20419;-67
2022/10/14 05:39:59;;;;;;;0.93;0.55;;;;;;;16.66;100.00;99113.97;7392024;19;20017;-67
2022/10/14 05:42:26;;;;;;;0.90;0.40;;;;;;;16.62;100.00;99107.91;7392863;19;20021;-67
2022/10/14 05:44:55;;;;;;;0.88;0.68;;;;;;;16.62;100.00;99113.53;7393580;19;20014;-67
2022/10/14 05:47:23;;;;;;;0.40;0.40;;;;;;;16.71;100.00;99117.22;7393282;19;20019;-67
2022/10/14 05:49:54;;;;;;;2.55;1.08;;;;;;;16.56;100.00;99104.44;7392813;19;20015;-66
2022/10/14 05:52:21;;;;;;;1.77;0.93;;;;;;;16.44;100.00;99102.28;7394190;19;20007;-66
2022/10/14 05:54:47;;;;;;;1.55;0.80;;;;;;;16.34;100.00;99101.91;7393158;19;20015;-66
2022/10/14 05:57:17;;;;;;;4.33;0.80;;;;;;;16.37;100.00;99106.47;7393553;19;20066;-66
2022/10/14 05:59:43;;;;;;;2.88;0.82;;;;;;;16.42;100.00;99102.81;7398659;19;20029;-66
2022/10/14 06:02:11;;;;;;;3.58;1.13;;;;;;;16.44;100.00;99094.59;7394326;19;20459;-67
2022/10/14 06:04:39;;;;;;;1.70;0.47;;;;;;;16.12;100.00;99090.22;7392857;19;20009;-66
2022/10/14 06:07:09;;;;;;;5.65;1.13;;;;;;;16.20;100.00;99091.91;7394020;19;20784;-67
2022/10/14 06:09:36;;;;;;;2.00;0.95;;;;;;;16.15;100.00;99098.38;7396848;19;20031;-66
2022/10/14 06:12:03;;;;;;;0.63;0.63;;;;;;;16.21;100.00;99090.63;7392153;19;20466;-66
2022/10/14 06:14:29;;;;;;;2.53;1.02;;;;;;;16.27;100.00;99093.34;7393329;19;20465;-66
2022/10/14 06:16:56;;;;;;;0.40;0.38;;;;;;;16.24;100.00;99095.16;7393216;19;20010;-67
2022/10/14 06:19:23;;;;;;;1.75;0.65;;;;;;;16.11;100.00;99089.50;7396363;19;20021;-67
2022/10/14 06:21:49;;;;;;;1.90;1.25;;;;;;;16.03;100.00;99088.56;7396204;19;20070;-66
2022/10/14 06:24:16;;;;;;;0.82;0.73;;;;;;;16.27;100.00;99094.09;7395102;19;20502;-66
2022/10/14 06:26:42;;;;;;;1.85;1.05;;;;;;;16.29;100.00;99094.31;7393854;19;20010;-66
2022/10/14 06:29:08;;;;;;;1.10;1.10;;;;;;;16.37;100.00;99089.59;7395358;19;20018;-66
2022/10/14 06:31:34;;;;;;;7.13;1.60;;;;;;;16.67;100.00;99081.00;7392507;19;20103;-67
2022/10/14 06:34:04;;;;;;;2.90;0.93;;;;;;;16.68;100.00;99079.69;7393080;19;20015;-67
2022/10/14 06:36:31;;;;;;;0.75;0.63;;;;;;;16.64;100.00;99076.44;7396538;19;20037;-66
2022/10/14 06:38:57;;;;;;;1.10;0.90;;;;;;;15.26;100.00;99067.81;7396191;19;20007;-66
2022/10/14 06:41:23;;;;;;;2.40;0.32;;;;;;;13.09;100.00;99072.50;7393099;19;20026;-66
2022/10/14 06:43:49;;;;;;;0.35;0.28;;;;;;;13.84;100.00;99074.03;7392281;19;20069;-66
2022/10/14 06:46:15;;;;;;;2.35;1.45;;;;;;;14.05;100.00;99080.78;7392310;19;20423;-66
2022/10/14 06:48:42;;;;;;;1.38;0.60;;;;;;;13.91;100.00;99070.66;7394595;19;20463;-66
2022/10/14 06:51:08;;;;;;;5.40;0.88;;;;;;;14.29;100.00;99083.72;7390491;19;20019;-65
2022/10/14 06:53:34;;;;;;;1.05;0.57;;;;;;;14.35;100.00;99087.25;7390897;19;20038;-65
2022/10/14 06:56:03;;;;;;;1.23;0.75;;;;;;;14.54;100.00;99082.50;7391335;19;20002;-65
2022/10/14 06:58:30;;;;;;;0.60;0.60;;;;;;;15.01;100.00;99086.66;7393926;19;20018;-65
2022/10/14 07:01:01;;;;;;;1.85;1.27;;;;;;;15.09;100.00;99086.88;7390175;19;20011;-65
2022/10/14 07:03:27;;;;;;;5.93;1.52;;;;;;;14.87;100.00;99081.47;7391089;19;20021;-64
2022/10/14 07:05:53;;;;;;;2.47;0.60;;;;;;;14.89;100.00;99090.88;7392062;19;20014;-65
2022/10/14 07:08:19;;;;;;;0.77;0.75;;;;;;;15.04;100.00;99096.84;7393586;19;20007;-64
2022/10/14 07:10:46;;;;;;;1.95;1.02;;;;;;;15.17;100.00;99085.75;7391005;19;20015;-65
2022/10/14 07:13:13;;;;;;;2.15;1.30;;;;;;;15.28;100.00;99078.50;7388830;19;20462;-65
2022/10/14 07:15:39;;;;;;;2.83;1.17;;;;;;;15.06;100.00;99085.09;7390413;19;20070;-65
2022/10/14 07:18:06;;;;;;;2.80;1.20;;;;;;;15.37;100.00;99092.19;7391449;19;20011;-65
2022/10/14 07:20:33;;;;;;;2.78;0.65;;;;;;;15.37;100.00;99092.19;7391786;19;20019;-65
2022/10/14 07:22:59;;;;;;;4.22;1.40;;;;;;;15.51;100.00;99074.94;7393113;19;20011;-65
2022/10/14 07:25:25;;;;;;;0.82;0.47;;;;;;;15.35;100.00;99087.09;7394807;19;20010;-65
2022/10/14 07:27:52;;;;;;;2.75;1.75;;;;;;;15.46;100.00;99092.63;7395497;19;20033;-65
2022/10/14 07:30:20;;;;;;;2.40;0.80;;;;;;;15.29;100.00;99100.41;7395501;19;20019;-65
2022/10/14 07:32:46;;;;;;;0.60;0.60;;;;;;;15.34;100.00;99096.03;7393224;19;20037;-65
2022/10/14 07:35:13;;;;;;;0.60;0.45;;;;;;;15.41;100.00;99092.63;7395656;19;20028;-65
2022/10/14 07:37:39;;;;;;;2.05;0.85;;;;;;;15.35;100.00;99108.78;7395101;19;20017;-65
2022/10/14 07:40:06;;;;;;;1.80;0.73;;;;;;;15.27;100.00;99113.47;7394832;19;20015;-65
2022/10/14 07:42:33;;;;;;;0.60;0.38;;;;;;;15.42;100.00;99113.81;7393790;19;20360;-65
2022/10/14 07:44:59;;;;;;;2.45;0.98;;;;;;;15.26;100.00;99112.69;7393609;19;20006;-65
2022/10/14 07:47:25;;;;;;;1.27;1.17;;;;;;;15.18;100.00;99108.97;7392433;19;20007;-65
2022/10/14 07:49:52;;;;;;;0.35;0.35;;;;;;;15.14;100.00;99109.22;7388146;19;20010;-65
2022/10/14 07:52:18;;;;;;;3.65;0.50;;;;;;;14.98;100.00;99112.97;7392751;19;20026;-65
2022/10/14 07:54:45;;;;;;;7.22;1.25;;;;;;;15.06;100.00;99113.91;7391468;19;20011;-65
2022/10/14 07:57:11;;;;;;;2.38;0.93;;;;;;;15.17;100.00;99111.00;7392561;19;20033;-65
2022/10/14 07:59:38;;;;;;;0.55;0.52;;;;;;;15.19;100.00;99119.66;7392238;19;20515;-65
2022/10/14 08:02:04;;;;;;;12.70;1.40;;;;;;;15.64;100.00;99119.19;7392833;19;20800;-65
2022/10/14 08:04:30;;;;;;;1.30;0.65;;;;;;;15.81;100.00;99123.31;7393279;19;20030;-65
2022/10/14 08:06:56;;;;;;;2.17;0.60;;;;;;;15.74;100.00;99128.78;7392624;19;20006;-65
2022/10/14 08:09:23;;;;;;;1.27;0.73;;;;;;;15.53;100.00;99130.53;7393184;19;20002;-66
2022/10/14 08:11:49;;;;;;;1.08;0.63;;;;;;;15.70;100.00;99133.94;7392755;19;20361;-66
2022/10/14 08:14:18;;;;;;;0.45;0.45;;;;;;;15.76;100.00;99137.44;7391691;19;20011;-66
2022/10/14 08:16:44;;;;;;;0.60;0.45;;;;;;;15.75;100.00;99138.69;7392234;19;20011;-66
2022/10/14 08:19:10;;;;;;;0.40;0.40;;;;;;;15.76;100.00;99137.44;7389235;19;20007;-66
2022/10/14 08:21:37;;;;;;;0.70;0.52;;;;;;;15.81;100.00;99139.41;7391663;19;20015;-66
2022/10/14 08:24:03;;;;;;;4.50;1.63;;;;;;;16.02;100.00;99137.63;7388687;19;20014;-66
2022/10/14 08:26:38;;;;;;;1.92;0.90;;;;;;;16.28;100.00;99128.59;7387486;19;20018;-66
2022/10/14 08:29:10;;;;;;;1.95;1.20;;;;;;;16.62;100.00;99126.81;7391396;19;20011;-65
2022/10/14 08:31:37;;;;;;;2.63;0.73;;;;;;;16.37;100.00;99134.56;7388394;19;20463;-66
2022/10/14 08:34:03;;;;;;;1.63;1.05;;;;;;;16.36;100.00;99123.84;7389330;19;20345;-66
2022/10/14 08:36:29;;;;;;;1.38;0.40;;;;;;;16.33;100.00;99128.50;7392947;19;20017;-58
2022/10/14 08:38:56;;;;;;;1.05;0.63;;;;;;;16.38;100.00;99129.72;7392055;19;20011;-66
2022/10/14 08:41:41;;;;;;;2.60;1.05;;;;;;;16.41;100.00;99129.41;7387184;19;20017;-59
2022/10/14 08:44:26;;;;;;;1.02;0.57;;;;;;;16.87;100.00;99133.09;7388881;19;20011;-58
2022/10/14 08:46:58;;;;;;;1.58;1.40;;;;;;;17.14;100.00;99129.03;7389028;19;20046;-58
2022/10/14 08:49:29;;;;;;;0.65;0.45;;;;;;;17.26;100.00;99130.38;7393091;19;20019;-66
2022/10/14 08:52:01;;;;;;;0.70;0.60;;;;;;;17.34;100.00;99139.69;7390632;19;20014;-66
2022/10/14 08:54:38;;;;;;;2.95;0.75;;;;;;;17.18;100.00;99126.66;7388883;19;20254;-66
2022/10/14 08:57:19;;;;;;;6.57;1.00;;;;;;;17.30;100.00;99122.34;7388646;19;20018;-66
2022/10/14 08:59:46;;;;;;;7.72;1.52;;;;;;;17.35;100.00;99118.66;7388938;19;20014;-66
2022/10/14 09:02:14;;;;;;;0.57;0.52;;;;;;;17.42;100.00;99115.97;7388027;19;20538;-66
2022/10/14 09:04:41;;;;;;;2.67;1.25;;;;;;;17.39;100.00;99119.09;7386828;19;20015;-66
2022/10/14 09:07:14;;;;;;;9.45;1.23;;;;;;;17.40;100.00;99126.25;7386728;19;20647;-66
2022/10/14 09:09:43;;;;;;;0.52;0.52;;;;;;;17.09;100.00;99129.88;7393227;19;20014;-66
2022/10/14 09:12:17;;;;;;;0.68;0.20;;;;;;;17.18;100.00;99121.03;7386526;19;20031;-66
2022/10/14 09:15:02;;;;;;;2.92;0.90;;;;;;;17.34;100.00;99119.97;7390738;19;20012;-55
2022/10/14 09:17:40;;;;;;;2.42;0.43;;;;;;;17.37;100.00;99122.44;7397576;19;20386;-58
2022/10/14 09:20:17;;;;;;;4.68;1.00;;;;;;;17.39;100.00;99102.19;7398577;19;20387;-58
2022/10/14 09:22:59;;;;;;;14.45;0.90;;;;;;;17.50;100.00;99099.22;7399000;19;20011;-58
2022/10/14 09:25:27;;;;;;;0.63;0.63;;;;;;;17.64;100.00;99097.16;7398380;19;20010;-57
2022/10/14 09:27:53;;;;;;;0.38;0.38;;;;;;;17.69;100.00;99096.28;7399858;19;20342;-58
2022/10/14 09:30:19;;;;;;;0.40;0.40;;;;;;;17.68;100.00;99094.75;7400329;19;20459;-57
2022/10/14 09:32:51;;;;;;;1.20;1.10;;;;;;;17.69;100.00;99079.41;7397206;19;20523;-58
2022/10/14 09:35:29;;;;;;;1.20;0.45;;;;;;;17.67;100.00;99077.09;7399169;19;20027;-58
2022/10/14 09:37:55;;;;;;;1.25;0.43;;;;;;;17.73;100.00;99080.59;7398908;19;20010;-58
2022/10/14 09:40:34;;;;;;;0.80;0.25;;;;;;;17.89;100.00;99068.19;7398670;19;20010;-58
2022/10/14 09:43:09;;;;;;;0.77;0.32;;;;;;;17.91;100.00;99068.41;7398988;19;20040;-58
2022/10/14 09:46:06;;;;;;;0.50;0.28;;;;;;;18.09;100.00;99073.13;7399034;19;20018;-58
2022/10/14 09:48:48;;;;;;;0.10;0.10;;;;;;;18.24;100.00;99080.22;7397186;19;20011;-58
2022/10/14 09:51:30;;;;;;;1.55;0.63;;;;;;;18.35;100.00;99074.34;7396787;19;20018;-58
2022/10/14 09:54:00;;;;;;;0.40;0.20;;;;;;;18.41;100.00;99080.63;7397689;19;20082;-58
2022/10/14 09:56:28;;;;;;;3.38;0.40;;;;;;;18.44;100.00;99080.31;7396980;19;20062;-58
2022/10/14 09:58:56;;;;;;;0.20;0.20;;;;;;;18.57;100.00;99080.25;7396261;19;20017;-58
2022/10/14 10:01:26;;;;;;;1.73;0.20;;;;;;;18.53;100.00;99077.00;7395110;19;20023;-58
2022/10/14 10:03:53;;;;;;;2.83;0.20;;;;;;;18.60;100.00;99069.94;7394579;19;20343;-58
2022/10/14 10:06:25;;;;;;;0.20;0.20;;;;;;;18.62;100.00;99076.53;7394476;19;20220;-58
2022/10/14 10:08:58;;;;;;;0.32;0.30;;;;;;;18.72;100.00;99071.94;7397204;19;20466;-58
2022/10/14 10:11:36;;;;;;;0.20;0.10;;;;;;;18.82;100.00;99075.00;7394114;19;20014;-58
2022/10/14 10:14:25;;;;;;;0.30;0.30;;;;;;;18.85;100.00;99062.63;7393429;19;20103;-58
2022/10/14 10:17:16;;;;;;;1.10;0.93;;;;;;;18.71;100.00;99058.38;7393797;19;20032;-58
2022/10/14 10:19:46;;;;;;;4.68;0.43;;;;;;;18.67;100.00;99057.94;7396263;19;20042;-58
2022/10/14 10:22:18;;;;;;;0.38;0.20;;;;;;;18.63;100.00;99063.94;7397083;19;20043;-58
2022/10/14 10:24:45;;;;;;;0.38;0.38;;;;;;;18.63;100.00;99063.19;7393878;19;20007;-58
2022/10/14 10:27:27;;;;;;;0.25;0.15;;;;;;;18.49;100.00;99070.19;7393581;19;20364;-58
2022/10/14 10:29:56;;;;;;;;;;;;;;;18.47;100.00;99067.19;7393958;19;20015;-58
2022/10/14 10:32:54;;;;;;;0.40;0.20;;;;;;;18.49;100.00;99064.56;7390353;19;19933;-58
2022/10/14 10:35:30;;;;;;;0.25;0.25;;;;;;;18.64;100.00;99065.47;7393546;19;20010;-58
2022/10/14 10:38:19;;;;;;;0.20;0.10;;;;;;;18.71;100.00;99064.03;7394033;19;20013;-58
2022/10/14 10:41:12;;;;;;;0.20;0.20;;;;;;;18.77;100.00;99054.13;7392668;19;20021;-58
2022/10/14 10:43:52;;;;;;;0.10;0.10;;;;;;;18.89;100.00;99051.75;7393309;19;20046;-58
2022/10/14 10:46:44;;;;;;;0.10;0.10;;;;;;;19.12;100.00;99052.69;7392309;19;20074;-58
2022/10/14 10:49:37;;;;;;;2.33;0.68;;;;;;;19.41;100.00;99050.63;7395294;19;20014;-58
2022/10/14 10:52:12;;;;;;;0.65;0.30;;;;;;;19.59;100.00;99041.13;7394888;19;20094;-58
2022/10/14 10:55:15;;;;;;;0.45;0.28;;;;;;;19.90;100.00;99042.03;7392689;19;20464;-58
2022/10/14 10:57:51;;;;;;;0.68;0.20;;;;;;;20.22;100.00;99042.34;7392823;19;20075;-58
2022/10/14 11:00:21;;;;;;;0.70;0.43;;;;;;;20.37;100.00;99048.03;7392583;19;20010;-58
2022/10/14 11:03:14;;;;;;;0.32;0.10;;;;;;;20.39;100.00;99048.97;7392429;19;20010;-56
2022/10/14 11:05:53;;;;;;;0.85;0.20;;;;;;;20.54;100.00;99044.66;7391868;19;20014;-60
2022/10/14 11:12:14;;;;;;;0.10;0.10;;;;;;;21.00;100.00;99041.28;7390215;19;20498;-60
2022/10/14 11:15:01;;;;;;;0.88;0.45;;;;;;;21.28;100.00;99037.50;7390020;19;20078;-60
2022/10/14 11:17:46;;;;;;;0.10;0.00;;;;;;;20.70;100.00;99038.47;7391759;19;20066;-59
2022/10/14 11:20:35;;;;;;;0.57;0.22;;;;;;;20.67;100.00;99031.09;7390899;19;20355;-60
2022/10/14 11:23:23;;;;;;;0.10;0.10;;;;;;;20.71;100.00;99037.13;7395762;19;20384;-60
2022/10/14 11:26:19;;;;;;;0.52;0.22;;;;;;;20.83;100.00;99043.94;7391061;19;20451;-60
2022/10/14 11:29:34;;;;;;;0.10;0.00;;;;;;;21.14;100.00;99028.44;7390073;19;20018;-61
2022/10/14 11:32:21;;;;;;;0.82;0.43;;;;;;;21.37;100.00;99027.66;7393845;19;20018;-59
2022/10/14 11:35:04;;;;;;;1.83;0.60;;;;;;;21.68;100.00;99031.88;7391638;19;20014;-59
2022/10/14 11:37:57;;;;;;;0.25;0.20;;;;;;;21.91;100.00;99024.09;7388991;19;20494;-60
2022/10/14 11:40:44;;;;;;;0.10;0.08;;;;;;;22.09;100.00;99031.34;7389836;19;20582;-60
2022/10/14 11:43:53;;;;;;;3.42;0.22;;;;;;;22.11;100.00;99019.44;7390587;19;20007;-60
2022/10/14 11:46:27;;;;;;;0.40;0.38;;;;;;;22.07;100.00;99025.50;7390779;19;20082;-60
2022/10/14 11:48:57;;;;;;;0.55;0.30;;;;;;;22.02;100.00;99020.81;7392790;19;20011;-60
2022/10/14 11:51:33;;;;;;;0.63;0.32;;;;;;;22.07;100.00;99014.16;7392848;19;20006;-60
2022/10/14 11:54:15;;;;;;;0.10;0.05;;;;;;;22.04;100.00;99021.00;7390500;19;20027;-61